KLM1411 EHAM-LFPG
Flight info
| Callsign | KLM1411 |
|---|---|
| Flight time | 0h 48m |
| Altitude | 29000 |
| Route | WOODY N872 DENOX DCT SISGA DCT DELOM DCT MOPIL |
| Aircraft | A21N/M-SBDE2E3GIJ1LORVWXY/LB1G1 |
Departure
| Time | 2026-05-06 12:07 |
|---|---|
| Airport | Amsterdam Airport Schiphol (EHAM) |
Arrival
| Time | 2026-05-06 12:56 |
|---|---|
| Airport | Charles de Gaulle International Airport (LFPG) |
| Time | Latitude | Longitude | Altitude | Speed | Heading |
|---|---|---|---|---|---|
| 2026-05-06 11:37 | 52.30571 | 4.76478 | 5 ft | 0 kts | 56° |
| 2026-05-06 11:56 | 52.30566 | 4.76467 | 5 ft | 3 kts | 56° |
| 2026-05-06 11:57 | 52.30556 | 4.76442 | 6 ft | 3 kts | 58° |
| 2026-05-06 11:57 | 52.30548 | 4.76416 | 6 ft | 3 kts | 88° |
| 2026-05-06 11:57 | 52.30553 | 4.76391 | 4 ft | 0 kts | 144° |
| 2026-05-06 12:01 | 52.30552 | 4.76392 | 4 ft | 1 kts | 145° |
| 2026-05-06 12:01 | 52.30535 | 4.76410 | 5 ft | 5 kts | 148° |
| 2026-05-06 12:02 | 52.30498 | 4.76446 | 6 ft | 7 kts | 149° |
| 2026-05-06 12:02 | 52.30446 | 4.76499 | 8 ft | 10 kts | 148° |
| 2026-05-06 12:02 | 52.30384 | 4.76562 | 12 ft | 11 kts | 150° |
| 2026-05-06 12:02 | 52.30310 | 4.76550 | 17 ft | 12 kts | 221° |
| 2026-05-06 12:03 | 52.30254 | 4.76409 | 16 ft | 18 kts | 238° |
| 2026-05-06 12:03 | 52.30178 | 4.76210 | 16 ft | 23 kts | 238° |
| 2026-05-06 12:03 | 52.30080 | 4.75955 | 14 ft | 29 kts | 238° |
| 2026-05-06 12:03 | 52.29965 | 4.75656 | 14 ft | 33 kts | 238° |
| 2026-05-06 12:04 | 52.29857 | 4.75365 | 17 ft | 24 kts | 238° |
| 2026-05-06 12:04 | 52.29860 | 4.75163 | 15 ft | 22 kts | 310° |
| 2026-05-06 12:04 | 52.29973 | 4.74950 | 9 ft | 26 kts | 310° |
| 2026-05-06 12:04 | 52.30095 | 4.74727 | 11 ft | 26 kts | 311° |
| 2026-05-06 12:05 | 52.30210 | 4.74516 | 16 ft | 23 kts | 310° |
| 2026-05-06 12:05 | 52.30313 | 4.74322 | 17 ft | 11 kts | 311° |
| 2026-05-06 12:05 | 52.30364 | 4.74228 | 17 ft | 11 kts | 312° |
| 2026-05-06 12:05 | 52.30415 | 4.74136 | 18 ft | 11 kts | 308° |
| 2026-05-06 12:06 | 52.30418 | 4.74024 | 18 ft | 10 kts | 247° |
| 2026-05-06 12:06 | 52.30409 | 4.73909 | 17 ft | 11 kts | 271° |
| 2026-05-06 12:06 | 52.30421 | 4.73785 | 17 ft | 11 kts | 310° |
| 2026-05-06 12:06 | 52.30486 | 4.73762 | 18 ft | 12 kts | 2° |
| 2026-05-06 12:07 | 52.30790 | 4.73792 | 23 ft | 76 kts | 4° |
| 2026-05-06 12:07 | 52.31553 | 4.73862 | 18 ft | 143 kts | 3° |
| 2026-05-06 12:07 | 52.32696 | 4.73993 | 164 ft | 176 kts | 6° |
| 2026-05-06 12:07 | 52.33927 | 4.74108 | 790 ft | 177 kts | 6° |
| 2026-05-06 12:08 | 52.35135 | 4.74249 | 1647 ft | 167 kts | 7° |
| 2026-05-06 12:08 | 52.36291 | 4.74435 | 2607 ft | 165 kts | 10° |
| 2026-05-06 12:08 | 52.37381 | 4.75090 | 3189 ft | 183 kts | 40° |
| 2026-05-06 12:08 | 52.37992 | 4.77039 | 3537 ft | 210 kts | 85° |
| 2026-05-06 12:09 | 52.37759 | 4.79469 | 4304 ft | 221 kts | 103° |
| 2026-05-06 12:09 | 52.37212 | 4.81855 | 5191 ft | 228 kts | 115° |
| 2026-05-06 12:09 | 52.36194 | 4.83890 | 6065 ft | 238 kts | 139° |
| 2026-05-06 12:09 | 52.34621 | 4.85050 | 6638 ft | 264 kts | 168° |
| 2026-05-06 12:10 | 52.32718 | 4.85202 | 7229 ft | 281 kts | 180° |
| 2026-05-06 12:10 | 52.30759 | 4.85089 | 8210 ft | 283 kts | 181° |
| 2026-05-06 12:10 | 52.28763 | 4.84969 | 9134 ft | 288 kts | 182° |
| 2026-05-06 12:10 | 52.26748 | 4.84875 | 10082 ft | 294 kts | 182° |
| 2026-05-06 12:11 | 52.24634 | 4.84798 | 10553 ft | 315 kts | 181° |
| 2026-05-06 12:11 | 52.22354 | 4.84732 | 10917 ft | 339 kts | 182° |
| 2026-05-06 12:11 | 52.19929 | 4.84672 | 11385 ft | 357 kts | 181° |
| 2026-05-06 12:11 | 52.17411 | 4.84616 | 11891 ft | 365 kts | 182° |
| 2026-05-06 12:12 | 52.14860 | 4.84562 | 12408 ft | 368 kts | 181° |
| 2026-05-06 12:12 | 52.12295 | 4.84509 | 12933 ft | 369 kts | 182° |
| 2026-05-06 12:12 | 52.09711 | 4.84457 | 13469 ft | 372 kts | 182° |
| 2026-05-06 12:12 | 52.07148 | 4.84404 | 13965 ft | 374 kts | 182° |
| 2026-05-06 12:13 | 52.04531 | 4.84341 | 14448 ft | 377 kts | 183° |
| 2026-05-06 12:13 | 52.01923 | 4.83807 | 14938 ft | 377 kts | 195° |
| 2026-05-06 12:13 | 51.99465 | 4.82321 | 15425 ft | 378 kts | 205° |
| 2026-05-06 12:13 | 51.97884 | 4.81120 | 15770 ft | 380 kts | 207° |
| 2026-05-06 12:14 | 51.94721 | 4.78610 | 16458 ft | 383 kts | 207° |
| 2026-05-06 12:14 | 51.92314 | 4.76696 | 16983 ft | 387 kts | 207° |
| 2026-05-06 12:14 | 51.89884 | 4.74777 | 17529 ft | 390 kts | 206° |
| 2026-05-06 12:14 | 51.87427 | 4.72846 | 18060 ft | 393 kts | 206° |
| 2026-05-06 12:15 | 51.85789 | 4.71564 | 18392 ft | 395 kts | 206° |
| 2026-05-06 12:15 | 51.83304 | 4.69622 | 18876 ft | 397 kts | 207° |
| 2026-05-06 12:15 | 51.80808 | 4.67675 | 19366 ft | 399 kts | 207° |
| 2026-05-06 12:15 | 51.78297 | 4.65721 | 19855 ft | 400 kts | 206° |
| 2026-05-06 12:16 | 51.75780 | 4.63766 | 20360 ft | 402 kts | 207° |
| 2026-05-06 12:16 | 51.73253 | 4.61802 | 20867 ft | 403 kts | 207° |
| 2026-05-06 12:16 | 51.70717 | 4.59836 | 21385 ft | 405 kts | 206° |
| 2026-05-06 12:16 | 51.68162 | 4.57858 | 21913 ft | 407 kts | 206° |
| 2026-05-06 12:17 | 51.65640 | 4.55907 | 22452 ft | 408 kts | 206° |
| 2026-05-06 12:17 | 51.63071 | 4.53924 | 22817 ft | 411 kts | 206° |
| 2026-05-06 12:17 | 51.60477 | 4.51924 | 22877 ft | 413 kts | 206° |
| 2026-05-06 12:17 | 51.57881 | 4.49926 | 22880 ft | 413 kts | 206° |
| 2026-05-06 12:18 | 51.55284 | 4.47928 | 22880 ft | 413 kts | 206° |
| 2026-05-06 12:18 | 51.52683 | 4.45930 | 22882 ft | 414 kts | 206° |
| 2026-05-06 12:18 | 51.50079 | 4.43932 | 22883 ft | 414 kts | 206° |
| 2026-05-06 12:18 | 51.47481 | 4.41942 | 22880 ft | 414 kts | 206° |
| 2026-05-06 12:19 | 51.44874 | 4.39947 | 22883 ft | 416 kts | 206° |
| 2026-05-06 12:19 | 51.42260 | 4.37949 | 22884 ft | 416 kts | 206° |
| 2026-05-06 12:19 | 51.39679 | 4.35979 | 22884 ft | 416 kts | 206° |
| 2026-05-06 12:19 | 51.37066 | 4.33989 | 22883 ft | 416 kts | 206° |
| 2026-05-06 12:20 | 51.34447 | 4.31999 | 22887 ft | 416 kts | 206° |
| 2026-05-06 12:20 | 51.31833 | 4.30015 | 22881 ft | 416 kts | 206° |
| 2026-05-06 12:20 | 51.29220 | 4.28032 | 22881 ft | 415 kts | 206° |
| 2026-05-06 12:20 | 51.26609 | 4.26050 | 22882 ft | 416 kts | 206° |
| 2026-05-06 12:21 | 51.23991 | 4.24064 | 22880 ft | 417 kts | 206° |
| 2026-05-06 12:21 | 51.21372 | 4.22080 | 22879 ft | 416 kts | 206° |
| 2026-05-06 12:21 | 51.18750 | 4.20095 | 22878 ft | 417 kts | 206° |
| 2026-05-06 12:21 | 51.16074 | 4.18289 | 22890 ft | 418 kts | 202° |
| 2026-05-06 12:22 | 51.13349 | 4.16664 | 22880 ft | 417 kts | 201° |
| 2026-05-06 12:22 | 51.10642 | 4.15125 | 22884 ft | 417 kts | 200° |
| 2026-05-06 12:22 | 51.07902 | 4.13612 | 22884 ft | 418 kts | 200° |
| 2026-05-06 12:22 | 51.05146 | 4.12114 | 22883 ft | 418 kts | 199° |
| 2026-05-06 12:23 | 51.02391 | 4.10624 | 22885 ft | 417 kts | 200° |
| 2026-05-06 12:23 | 50.99646 | 4.09138 | 22884 ft | 417 kts | 199° |
| 2026-05-06 12:23 | 50.96893 | 4.07646 | 22888 ft | 418 kts | 200° |
| 2026-05-06 12:23 | 50.94141 | 4.06151 | 22886 ft | 418 kts | 200° |
| 2026-05-06 12:24 | 50.91383 | 4.04686 | 22882 ft | 417 kts | 198° |
| 2026-05-06 12:24 | 50.88555 | 4.03634 | 22883 ft | 418 kts | 190° |
| 2026-05-06 12:24 | 50.85688 | 4.03234 | 22888 ft | 420 kts | 182° |
| 2026-05-06 12:24 | 50.82764 | 4.03272 | 22888 ft | 421 kts | 179° |
| 2026-05-06 12:25 | 50.79840 | 4.03503 | 22882 ft | 421 kts | 177° |
| 2026-05-06 12:25 | 50.76915 | 4.03834 | 22892 ft | 422 kts | 176° |
| 2026-05-06 12:25 | 50.73984 | 4.04205 | 22891 ft | 423 kts | 176° |
| 2026-05-06 12:25 | 50.71049 | 4.04578 | 22890 ft | 423 kts | 176° |
| 2026-05-06 12:26 | 50.68109 | 4.04942 | 22881 ft | 423 kts | 176° |
| 2026-05-06 12:26 | 50.65170 | 4.05290 | 22885 ft | 423 kts | 177° |
| 2026-05-06 12:26 | 50.62234 | 4.05625 | 22891 ft | 423 kts | 176° |
| 2026-05-06 12:26 | 50.59335 | 4.05946 | 22895 ft | 423 kts | 177° |
| 2026-05-06 12:27 | 50.56395 | 4.06266 | 22886 ft | 423 kts | 176° |
| 2026-05-06 12:27 | 50.53451 | 4.06585 | 22886 ft | 424 kts | 176° |
| 2026-05-06 12:27 | 50.50505 | 4.06904 | 22900 ft | 424 kts | 176° |
| 2026-05-06 12:27 | 50.47557 | 4.07224 | 22886 ft | 424 kts | 176° |
| 2026-05-06 12:28 | 50.44610 | 4.07544 | 22893 ft | 424 kts | 176° |
| 2026-05-06 12:28 | 50.41664 | 4.07864 | 22891 ft | 424 kts | 176° |
| 2026-05-06 12:28 | 50.38719 | 4.08183 | 22885 ft | 424 kts | 176° |
| 2026-05-06 12:28 | 50.35765 | 4.08503 | 22887 ft | 424 kts | 176° |
| 2026-05-06 12:29 | 50.32820 | 4.08821 | 22887 ft | 424 kts | 176° |
| 2026-05-06 12:29 | 50.29869 | 4.09140 | 22877 ft | 425 kts | 176° |
| 2026-05-06 12:29 | 50.26957 | 4.09457 | 22886 ft | 425 kts | 175° |
| 2026-05-06 12:29 | 50.24009 | 4.09778 | 22881 ft | 425 kts | 175° |
| 2026-05-06 12:30 | 50.21061 | 4.10098 | 22879 ft | 425 kts | 176° |
| 2026-05-06 12:30 | 50.18107 | 4.10418 | 22881 ft | 424 kts | 176° |
| 2026-05-06 12:30 | 50.15227 | 4.10684 | 22875 ft | 406 kts | 179° |
| 2026-05-06 12:30 | 50.12452 | 4.10618 | 22885 ft | 393 kts | 182° |
| 2026-05-06 12:31 | 50.09722 | 4.10430 | 22877 ft | 393 kts | 183° |
| 2026-05-06 12:31 | 50.06989 | 4.10219 | 22875 ft | 393 kts | 183° |
| 2026-05-06 12:31 | 50.04251 | 4.10009 | 22877 ft | 394 kts | 183° |
| 2026-05-06 12:31 | 50.01509 | 4.09801 | 22879 ft | 394 kts | 183° |
| 2026-05-06 12:32 | 49.98770 | 4.09596 | 22882 ft | 395 kts | 183° |
| 2026-05-06 12:32 | 49.96024 | 4.09391 | 22876 ft | 394 kts | 183° |
| 2026-05-06 12:32 | 49.93287 | 4.09188 | 22877 ft | 394 kts | 183° |
| 2026-05-06 12:32 | 49.90584 | 4.08990 | 22871 ft | 394 kts | 183° |
| 2026-05-06 12:33 | 49.87795 | 4.08784 | 22759 ft | 413 kts | 183° |
| 2026-05-06 12:33 | 49.84848 | 4.08565 | 22599 ft | 432 kts | 183° |
| 2026-05-06 12:33 | 49.81843 | 4.08344 | 22462 ft | 428 kts | 183° |
| 2026-05-06 12:33 | 49.78902 | 4.08129 | 22002 ft | 417 kts | 183° |
| 2026-05-06 12:34 | 49.76016 | 4.07918 | 21406 ft | 411 kts | 183° |
| 2026-05-06 12:34 | 49.73172 | 4.07711 | 20854 ft | 405 kts | 184° |
| 2026-05-06 12:34 | 49.70368 | 4.07507 | 20323 ft | 400 kts | 184° |
| 2026-05-06 12:34 | 49.67608 | 4.07305 | 19788 ft | 394 kts | 184° |
| 2026-05-06 12:35 | 49.64889 | 4.07106 | 19266 ft | 387 kts | 184° |
| 2026-05-06 12:35 | 49.62237 | 4.06649 | 18744 ft | 380 kts | 194° |
| 2026-05-06 12:35 | 49.59855 | 4.05157 | 18247 ft | 372 kts | 213° |
| 2026-05-06 12:35 | 49.57954 | 4.02546 | 17704 ft | 365 kts | 231° |
| 2026-05-06 12:36 | 49.56495 | 3.99383 | 17219 ft | 360 kts | 237° |
| 2026-05-06 12:36 | 49.55142 | 3.96134 | 16729 ft | 360 kts | 237° |
| 2026-05-06 12:36 | 49.53799 | 3.92883 | 16245 ft | 358 kts | 238° |
| 2026-05-06 12:36 | 49.52459 | 3.89663 | 15761 ft | 356 kts | 238° |
| 2026-05-06 12:37 | 49.51122 | 3.86471 | 15280 ft | 354 kts | 238° |
| 2026-05-06 12:37 | 49.49787 | 3.83300 | 14800 ft | 352 kts | 238° |
| 2026-05-06 12:37 | 49.48460 | 3.80152 | 14324 ft | 348 kts | 239° |
| 2026-05-06 12:37 | 49.47400 | 3.76905 | 14041 ft | 336 kts | 251° |
| 2026-05-06 12:38 | 49.46740 | 3.73568 | 13955 ft | 317 kts | 256° |
| 2026-05-06 12:38 | 49.46194 | 3.70364 | 13820 ft | 302 kts | 257° |
| 2026-05-06 12:38 | 49.45678 | 3.67262 | 13383 ft | 298 kts | 256° |
| 2026-05-06 12:38 | 49.45166 | 3.64189 | 12961 ft | 294 kts | 257° |
| 2026-05-06 12:39 | 49.44662 | 3.61177 | 12624 ft | 289 kts | 256° |
| 2026-05-06 12:39 | 49.44162 | 3.58207 | 12358 ft | 291 kts | 257° |
| 2026-05-06 12:39 | 49.43653 | 3.55195 | 12059 ft | 292 kts | 256° |
| 2026-05-06 12:39 | 49.43139 | 3.52171 | 11762 ft | 292 kts | 256° |
| 2026-05-06 12:40 | 49.42628 | 3.49168 | 11459 ft | 290 kts | 256° |
| 2026-05-06 12:40 | 49.41986 | 3.46236 | 11153 ft | 289 kts | 244° |
| 2026-05-06 12:40 | 49.40812 | 3.43753 | 10862 ft | 288 kts | 225° |
| 2026-05-06 12:40 | 49.39314 | 3.41694 | 10574 ft | 288 kts | 220° |
| 2026-05-06 12:41 | 49.37761 | 3.39740 | 10283 ft | 288 kts | 219° |
| 2026-05-06 12:41 | 49.36207 | 3.37804 | 9986 ft | 287 kts | 220° |
| 2026-05-06 12:41 | 49.34666 | 3.35874 | 9686 ft | 285 kts | 220° |
| 2026-05-06 12:41 | 49.33157 | 3.33977 | 9376 ft | 284 kts | 220° |
| 2026-05-06 12:42 | 49.31632 | 3.32056 | 9086 ft | 284 kts | 220° |
| 2026-05-06 12:42 | 49.30107 | 3.30132 | 8806 ft | 284 kts | 220° |
| 2026-05-06 12:42 | 49.28561 | 3.28181 | 8523 ft | 284 kts | 221° |
| 2026-05-06 12:42 | 49.27038 | 3.26260 | 8210 ft | 284 kts | 220° |
| 2026-05-06 12:43 | 49.25530 | 3.24359 | 7919 ft | 284 kts | 222° |
| 2026-05-06 12:43 | 49.24007 | 3.22440 | 7633 ft | 283 kts | 223° |
| 2026-05-06 12:43 | 49.22487 | 3.20523 | 7348 ft | 283 kts | 221° |
| 2026-05-06 12:43 | 49.20971 | 3.18614 | 7062 ft | 282 kts | 221° |
| 2026-05-06 12:44 | 49.19453 | 3.16706 | 6904 ft | 282 kts | 221° |
| 2026-05-06 12:44 | 49.17935 | 3.14797 | 6891 ft | 283 kts | 221° |
| 2026-05-06 12:44 | 49.16413 | 3.12885 | 6891 ft | 283 kts | 221° |
| 2026-05-06 12:44 | 49.14891 | 3.10976 | 6883 ft | 283 kts | 221° |
| 2026-05-06 12:45 | 49.13366 | 3.09065 | 6877 ft | 282 kts | 221° |
| 2026-05-06 12:45 | 49.11848 | 3.07163 | 6893 ft | 283 kts | 221° |
| 2026-05-06 12:45 | 49.08821 | 3.03377 | 6872 ft | 276 kts | 221° |
| 2026-05-06 12:46 | 49.07336 | 3.01624 | 6666 ft | 266 kts | 212° |
| 2026-05-06 12:46 | 49.05589 | 3.00828 | 6331 ft | 263 kts | 181° |
| 2026-05-06 12:46 | 49.03811 | 3.01289 | 5999 ft | 257 kts | 156° |
| 2026-05-06 12:46 | 49.02365 | 3.02730 | 5699 ft | 249 kts | 131° |
| 2026-05-06 12:47 | 49.01491 | 3.04906 | 5398 ft | 238 kts | 103° |
| 2026-05-06 12:47 | 49.01400 | 3.07325 | 5109 ft | 224 kts | 72° |
| 2026-05-06 12:47 | 49.02002 | 3.09462 | 4915 ft | 221 kts | 66° |
| 2026-05-06 12:47 | 49.02369 | 3.11766 | 4903 ft | 225 kts | 70° |
| 2026-05-06 12:48 | 49.03190 | 3.13684 | 4895 ft | 215 kts | 31° |
| 2026-05-06 12:48 | 49.04589 | 3.14263 | 4906 ft | 211 kts | 354° |
| 2026-05-06 12:48 | 49.05909 | 3.13366 | 4895 ft | 214 kts | 314° |
| 2026-05-06 12:48 | 49.06493 | 3.11289 | 4893 ft | 222 kts | 273° |
| 2026-05-06 12:49 | 49.06132 | 3.08972 | 4913 ft | 229 kts | 253° |
| 2026-05-06 12:49 | 49.05642 | 3.06685 | 4894 ft | 231 kts | 258° |
| 2026-05-06 12:49 | 49.05310 | 3.04301 | 4887 ft | 229 kts | 265° |
| 2026-05-06 12:49 | 49.05141 | 3.01886 | 4894 ft | 229 kts | 269° |
| 2026-05-06 12:50 | 49.05013 | 2.99463 | 4891 ft | 229 kts | 269° |
| 2026-05-06 12:50 | 49.04883 | 2.97068 | 4920 ft | 219 kts | 269° |
| 2026-05-06 12:50 | 49.04756 | 2.94796 | 4959 ft | 213 kts | 269° |
| 2026-05-06 12:50 | 49.04635 | 2.92549 | 4982 ft | 213 kts | 269° |
| 2026-05-06 12:51 | 49.04514 | 2.90293 | 4943 ft | 214 kts | 269° |
| 2026-05-06 12:51 | 49.04392 | 2.88030 | 4726 ft | 214 kts | 269° |
| 2026-05-06 12:51 | 49.04270 | 2.85771 | 4383 ft | 214 kts | 269° |
| 2026-05-06 12:51 | 49.04149 | 2.83541 | 4035 ft | 212 kts | 270° |
| 2026-05-06 12:52 | 49.04028 | 2.81305 | 3715 ft | 211 kts | 270° |
| 2026-05-06 12:52 | 49.03909 | 2.79086 | 3427 ft | 210 kts | 269° |
| 2026-05-06 12:52 | 49.03789 | 2.76877 | 3146 ft | 208 kts | 270° |
| 2026-05-06 12:52 | 49.03671 | 2.74683 | 2864 ft | 207 kts | 270° |
| 2026-05-06 12:53 | 49.03554 | 2.72517 | 2574 ft | 201 kts | 270° |
| 2026-05-06 12:53 | 49.03442 | 2.70459 | 2307 ft | 190 kts | 269° |
| 2026-05-06 12:53 | 49.03337 | 2.68524 | 2074 ft | 176 kts | 269° |
| 2026-05-06 12:53 | 49.03240 | 2.66745 | 1820 ft | 160 kts | 270° |
| 2026-05-06 12:54 | 49.03155 | 2.65154 | 1613 ft | 142 kts | 270° |
| 2026-05-06 12:54 | 49.03079 | 2.63730 | 1413 ft | 133 kts | 269° |
| 2026-05-06 12:54 | 49.03004 | 2.62334 | 1242 ft | 132 kts | 270° |
| 2026-05-06 12:54 | 49.02929 | 2.60937 | 1062 ft | 132 kts | 269° |
| 2026-05-06 12:55 | 49.02853 | 2.59551 | 830 ft | 131 kts | 269° |
| 2026-05-06 12:55 | 49.02772 | 2.58073 | 705 ft | 148 kts | 267° |
| 2026-05-06 12:55 | 49.02684 | 2.56526 | 470 ft | 141 kts | 271° |
| 2026-05-06 12:55 | 49.02616 | 2.55114 | 364 ft | 124 kts | 269° |
| 2026-05-06 12:56 | 49.02566 | 2.54156 | 364 ft | 49 kts | 264° |
| 2026-05-06 12:56 | 49.02551 | 2.53933 | 365 ft | 31 kts | 264° |
| 2026-05-06 12:56 | 49.02528 | 2.53593 | 359 ft | 25 kts | 256° |
| 2026-05-06 12:56 | 49.02469 | 2.53387 | 362 ft | 12 kts | 245° |
| 2026-05-06 12:57 | 49.02422 | 2.53279 | 361 ft | 12 kts | 233° |
| 2026-05-06 12:57 | 49.02378 | 2.53183 | 366 ft | 0 kts | 235° |
| 2026-05-06 12:57 | 49.02378 | 2.53184 | 366 ft | 0 kts | 235° |
| 2026-05-06 12:57 | 49.02378 | 2.53183 | 366 ft | 0 kts | 235° |
| 2026-05-06 12:58 | 49.02360 | 2.53144 | 365 ft | 9 kts | 235° |
| 2026-05-06 12:58 | 49.02297 | 2.53038 | 364 ft | 17 kts | 213° |
| 2026-05-06 12:58 | 49.02167 | 2.53005 | 365 ft | 17 kts | 175° |
| 2026-05-06 12:58 | 49.02029 | 2.53023 | 363 ft | 21 kts | 175° |
| 2026-05-06 12:59 | 49.01904 | 2.53039 | 365 ft | 17 kts | 174° |
| 2026-05-06 12:59 | 49.01847 | 2.53175 | 361 ft | 19 kts | 87° |
| 2026-05-06 12:59 | 49.01857 | 2.53394 | 358 ft | 22 kts | 82° |
| 2026-05-06 12:59 | 49.01878 | 2.53628 | 362 ft | 23 kts | 82° |
| 2026-05-06 13:00 | 49.01887 | 2.53888 | 364 ft | 26 kts | 86° |
| 2026-05-06 13:00 | 49.01873 | 2.54127 | 366 ft | 22 kts | 139° |
| 2026-05-06 13:00 | 49.01811 | 2.54270 | 362 ft | 15 kts | 69° |
| 2026-05-06 13:00 | 49.01827 | 2.54440 | 359 ft | 18 kts | 85° |
| 2026-05-06 13:01 | 49.01837 | 2.54646 | 358 ft | 21 kts | 90° |
| 2026-05-06 13:01 | 49.01769 | 2.54840 | 363 ft | 23 kts | 151° |
| 2026-05-06 13:01 | 49.01602 | 2.54883 | 358 ft | 26 kts | 178° |
| 2026-05-06 13:01 | 49.01414 | 2.54913 | 358 ft | 29 kts | 167° |
| 2026-05-06 13:02 | 49.01215 | 2.54994 | 361 ft | 31 kts | 165° |
| 2026-05-06 13:02 | 49.00999 | 2.55089 | 362 ft | 34 kts | 163° |
| 2026-05-06 13:02 | 49.00788 | 2.55178 | 362 ft | 16 kts | 164° |
| 2026-05-06 13:02 | 49.00709 | 2.55218 | 364 ft | 13 kts | 154° |
| 2026-05-06 13:03 | 49.00701 | 2.55303 | 363 ft | 10 kts | 62° |
| 2026-05-06 13:03 | 49.00724 | 2.55421 | 365 ft | 13 kts | 84° |
| 2026-05-06 13:03 | 49.00736 | 2.55580 | 364 ft | 17 kts | 83° |
| 2026-05-06 13:03 | 49.00753 | 2.55774 | 362 ft | 20 kts | 82° |
| 2026-05-06 13:04 | 49.00773 | 2.55995 | 362 ft | 23 kts | 81° |
| 2026-05-06 13:04 | 49.00793 | 2.56232 | 364 ft | 20 kts | 80° |
| 2026-05-06 13:04 | 49.00819 | 2.56411 | 359 ft | 6 kts | 52° |
| 2026-05-06 13:04 | 49.00820 | 2.56415 | 359 ft | 1 kts | 65° |
| 2026-05-06 13:05 | 49.00819 | 2.56445 | 357 ft | 6 kts | 92° |
| 2026-05-06 13:05 | 49.00823 | 2.56535 | 360 ft | 11 kts | 85° |
| 2026-05-06 13:05 | 49.00830 | 2.56681 | 357 ft | 16 kts | 85° |
| 2026-05-06 13:05 | 49.00841 | 2.56877 | 363 ft | 21 kts | 84° |
| 2026-05-06 13:06 | 49.00853 | 2.57116 | 365 ft | 25 kts | 85° |
| 2026-05-06 13:06 | 49.00866 | 2.57351 | 364 ft | 22 kts | 85° |
| 2026-05-06 13:06 | 49.00850 | 2.57557 | 363 ft | 17 kts | 153° |
| 2026-05-06 13:06 | 49.00792 | 2.57540 | 361 ft | 6 kts | 168° |
| 2026-05-06 13:07 | 49.00743 | 2.57537 | 361 ft | 4 kts | 207° |
| 2026-05-06 13:07 | 49.00724 | 2.57524 | 363 ft | 1 kts | 204° |
| 2026-05-06 13:07 | 49.00713 | 2.57516 | 364 ft | 0 kts | 204° |